createdAt,value
2018-10-01T00:00:53.631Z,1004.78
2018-10-01T00:01:53.603Z,1004.76
2018-10-01T00:02:54.843Z,1004.80
2018-10-01T00:03:53.568Z,1004.82
2018-10-01T00:04:53.548Z,1004.81
2018-10-01T00:05:53.573Z,1004.83
2018-10-01T00:06:53.806Z,1004.86
2018-10-01T00:07:53.593Z,1004.88
2018-10-01T00:08:53.465Z,1004.84
2018-10-01T00:09:53.446Z,1004.84
2018-10-01T00:10:53.429Z,1004.85
2018-10-01T00:11:53.406Z,1004.81
2018-10-01T00:12:53.392Z,1004.81
2018-10-01T00:13:53.719Z,1004.81
2018-10-01T00:14:53.346Z,1004.79
2018-10-01T00:15:53.331Z,1004.79
2018-10-01T00:16:53.310Z,1004.76
2018-10-01T00:17:53.287Z,1004.77
2018-10-01T00:18:53.329Z,1004.74
2018-10-01T00:19:53.300Z,1004.73
2018-10-01T00:20:53.528Z,1004.75
2018-10-01T00:21:53.224Z,1004.74
2018-10-01T00:22:53.196Z,1004.72
2018-10-01T00:23:53.184Z,1004.73
2018-10-01T00:24:53.165Z,1004.75
2018-10-01T00:25:54.636Z,1004.76
2018-10-01T00:26:53.114Z,1004.72
2018-10-01T00:27:53.405Z,1004.77
2018-10-01T00:28:53.377Z,1004.75
2018-10-01T00:29:53.262Z,1004.77
2018-10-01T00:30:53.204Z,1004.75
2018-10-01T00:31:53.115Z,1004.74
2018-10-01T00:32:53.008Z,1004.74
2018-10-01T00:33:53.176Z,1004.75
2018-10-01T00:34:53.265Z,1004.69
2018-10-01T00:35:52.938Z,1004.72
2018-10-01T00:36:52.914Z,1004.76
2018-10-01T00:37:52.895Z,1004.73
2018-10-01T00:38:52.923Z,1004.77
2018-10-01T00:39:52.908Z,1004.76
2018-10-01T00:40:52.909Z,1004.73
2018-10-01T00:41:53.125Z,1004.75
2018-10-01T00:42:52.799Z,1004.73
2018-10-01T00:43:52.777Z,1004.71
2018-10-01T00:44:52.757Z,1004.68
2018-10-01T00:45:52.751Z,1004.65
2018-10-01T00:46:52.723Z,1004.69
2018-10-01T00:47:53.070Z,1004.64
2018-10-01T00:48:52.679Z,1004.69
2018-10-01T00:49:52.715Z,1004.63
2018-10-01T00:51:52.627Z,1004.61
2018-10-01T00:52:52.806Z,1004.58
2018-10-01T00:53:52.882Z,1004.57
2018-10-01T00:54:52.561Z,1004.57
2018-10-01T00:55:52.595Z,1004.58
2018-10-01T00:56:52.529Z,1004.61
2018-10-01T00:57:52.511Z,1004.63
2018-10-01T00:58:52.482Z,1004.63
2018-10-01T00:59:52.817Z,1004.60
2018-10-01T01:00:52.452Z,1004.60
2018-10-01T01:01:52.678Z,1004.58
2018-10-01T01:03:52.394Z,1004.64
2018-10-01T01:04:52.369Z,1004.66
2018-10-01T01:05:52.650Z,1004.62
2018-10-01T01:06:52.432Z,1004.61
2018-10-01T01:07:52.308Z,1004.59
2018-10-01T01:08:52.297Z,1004.62
2018-10-01T01:09:52.274Z,1004.57
2018-10-01T01:10:52.256Z,1004.60
2018-10-01T01:11:52.579Z,1004.56
2018-10-01T01:12:52.285Z,1004.61
2018-10-01T01:13:52.200Z,1004.61
2018-10-01T01:14:52.174Z,1004.63
2018-10-01T01:16:52.189Z,1004.61
2018-10-01T01:17:52.481Z,1004.62
2018-10-01T01:18:52.100Z,1004.61
2018-10-01T01:19:52.081Z,1004.62
2018-10-01T01:20:52.065Z,1004.64
2018-10-01T01:21:52.091Z,1004.63
2018-10-01T01:23:52.003Z,1004.58
2018-10-01T01:24:52.305Z,1004.58
2018-10-01T01:25:51.969Z,1004.56
2018-10-01T01:26:52.802Z,1004.53
2018-10-01T01:27:51.925Z,1004.59
2018-10-01T01:28:51.909Z,1004.59
2018-10-01T01:29:51.889Z,1004.62
2018-10-01T01:30:51.874Z,1004.58
2018-10-01T01:31:52.207Z,1004.57
2018-10-01T01:32:51.891Z,1004.56
2018-10-01T01:33:51.810Z,1004.54
2018-10-01T01:34:51.802Z,1004.50
2018-10-01T01:35:51.785Z,1004.51
2018-10-01T01:36:51.755Z,1004.48
2018-10-01T01:38:52.919Z,1004.55
2018-10-01T01:39:52.015Z,1004.56
2018-10-01T01:40:51.690Z,1004.59
2018-10-01T01:41:51.666Z,1004.57
2018-10-01T01:42:51.667Z,1004.58
2018-10-01T01:43:51.640Z,1004.54
2018-10-01T01:44:51.654Z,1004.55
2018-10-01T01:45:51.642Z,1004.56
2018-10-01T01:46:51.872Z,1004.53
2018-10-01T01:47:51.563Z,1004.55
2018-10-01T01:48:51.538Z,1004.53
2018-10-01T01:49:51.511Z,1004.56
2018-10-01T01:51:51.522Z,1004.50
2018-10-01T01:52:51.455Z,1004.49
2018-10-01T01:53:51.736Z,1004.50
2018-10-01T01:55:51.417Z,1004.52
2018-10-01T01:56:51.387Z,1004.54
2018-10-01T01:57:51.442Z,1004.51
2018-10-01T01:58:51.345Z,1004.48
2018-10-01T01:59:51.336Z,1004.51
2018-10-01T02:00:51.605Z,1004.48
2018-10-01T02:01:51.327Z,1004.47
2018-10-01T02:02:51.375Z,1004.46
2018-10-01T02:03:51.558Z,1004.43
2018-10-01T02:04:51.233Z,1004.46
2018-10-01T02:05:51.209Z,1004.47
2018-10-01T02:06:51.199Z,1004.45
2018-10-01T02:07:51.476Z,1004.42
2018-10-01T02:08:51.153Z,1004.38
2018-10-01T02:09:51.191Z,1004.42
2018-10-01T02:10:51.122Z,1004.36
2018-10-01T02:11:51.096Z,1004.38
2018-10-01T02:12:51.080Z,1004.36
2018-10-01T02:13:51.359Z,1004.35
2018-10-01T02:14:51.051Z,1004.35
2018-10-01T02:15:51.105Z,1004.33
2018-10-01T02:16:51.080Z,1004.33
2018-10-01T02:17:50.990Z,1004.34
2018-10-01T02:18:51.175Z,1004.33
2018-10-01T02:19:51.267Z,1004.30
2018-10-01T02:20:50.942Z,1004.31
2018-10-01T02:21:50.910Z,1004.28
2018-10-01T02:22:50.900Z,1004.28
2018-10-01T02:24:50.854Z,1004.27
2018-10-01T02:25:51.145Z,1004.24
2018-10-01T02:26:50.879Z,1004.22
2018-10-01T02:27:50.815Z,1004.20
2018-10-01T02:28:50.796Z,1004.19
2018-10-01T02:29:50.764Z,1004.20
2018-10-01T02:30:50.743Z,1004.18
2018-10-01T02:31:51.331Z,1004.20
2018-10-01T02:32:50.712Z,1004.22
2018-10-01T02:33:50.694Z,1004.24
2018-10-01T02:34:50.673Z,1004.21
2018-10-01T02:35:50.763Z,1004.16
2018-10-01T02:36:50.636Z,1004.14
2018-10-01T02:37:50.970Z,1004.12
2018-10-01T02:38:50.608Z,1004.13
2018-10-01T02:39:50.580Z,1004.14
2018-10-01T02:41:50.542Z,1004.06
2018-10-01T02:42:50.531Z,1004.09
2018-10-01T02:43:51.161Z,1004.07
2018-10-01T02:44:50.485Z,1004.09
2018-10-01T02:45:50.469Z,1004.09
2018-10-01T02:46:50.448Z,1004.07
2018-10-01T02:47:50.552Z,1004.15
2018-10-01T02:48:50.411Z,1004.17
2018-10-01T02:49:50.459Z,1004.14
2018-10-01T02:51:50.663Z,1004.11
2018-10-01T02:53:50.326Z,1004.13
2018-10-01T02:54:50.321Z,1004.11
2018-10-01T02:55:50.503Z,1004.11
2018-10-01T02:56:50.277Z,1004.13
2018-10-01T02:57:50.257Z,1004.17
2018-10-01T02:58:50.544Z,1004.19
2018-10-01T03:00:50.506Z,1004.20
2018-10-01T03:01:50.175Z,1004.14
2018-10-01T03:02:50.154Z,1004.13
2018-10-01T03:03:50.137Z,1004.20
2018-10-01T03:04:50.333Z,1004.18
2018-10-01T03:05:50.403Z,1004.20
2018-10-01T03:06:50.439Z,1004.21
2018-10-01T03:07:50.068Z,1004.17
2018-10-01T03:08:50.052Z,1004.14
2018-10-01T03:09:50.059Z,1004.16
2018-10-01T03:10:50.062Z,1004.11
2018-10-01T03:11:50.037Z,1004.09
2018-10-01T03:12:50.271Z,1004.13
2018-10-01T03:13:50.024Z,1004.12
2018-10-01T03:15:49.918Z,1004.11
2018-10-01T03:16:49.923Z,1004.10
2018-10-01T03:17:49.931Z,1004.08
2018-10-01T03:18:49.861Z,1004.10
2018-10-01T03:19:50.147Z,1004.04
2018-10-01T03:20:49.875Z,1004.09
2018-10-01T03:21:49.818Z,1004.04
2018-10-01T03:22:50.147Z,1004.02
2018-10-01T03:23:49.766Z,1004.05
2018-10-01T03:24:49.748Z,1003.99
2018-10-01T03:25:49.734Z,1003.96
2018-10-01T03:26:50.027Z,1003.96
2018-10-01T03:27:49.747Z,1003.97
2018-10-01T03:28:49.726Z,1003.96
2018-10-01T03:29:49.939Z,1003.89
2018-10-01T03:30:49.714Z,1003.92
2018-10-01T03:31:49.629Z,1003.85
2018-10-01T03:33:49.741Z,1003.83
2018-10-01T03:34:50.046Z,1003.89
2018-10-01T03:35:49.557Z,1003.90
2018-10-01T03:36:49.537Z,1003.96
2018-10-01T03:37:49.589Z,1003.95
2018-10-01T03:38:49.532Z,1003.96
2018-10-01T03:39:49.476Z,1003.99
2018-10-01T03:40:49.766Z,1003.94
2018-10-01T03:41:49.437Z,1003.95
2018-10-01T03:42:49.417Z,1003.98
2018-10-01T03:43:49.425Z,1003.97
2018-10-01T03:44:49.435Z,1004.00
2018-10-01T03:45:49.370Z,1003.96
2018-10-01T03:46:49.655Z,1003.95
2018-10-01T03:47:49.325Z,1003.99
2018-10-01T03:48:49.302Z,1003.96
2018-10-01T03:49:49.283Z,1004.00
2018-10-01T03:50:49.262Z,1003.97
2018-10-01T03:51:49.612Z,1004.00
2018-10-01T03:52:49.579Z,1003.97
2018-10-01T03:53:49.206Z,1003.99
2018-10-01T03:55:50.372Z,1003.96
2018-10-01T03:56:49.223Z,1003.94
2018-10-01T03:59:49.101Z,1004.01
2018-10-01T04:00:49.083Z,1004.03
2018-10-01T04:01:49.106Z,1003.98
2018-10-01T04:02:49.058Z,1003.99
2018-10-01T04:03:49.084Z,1003.97
2018-10-01T04:05:48.996Z,1003.93
2018-10-01T04:06:50.237Z,1003.87
2018-10-01T04:07:49.008Z,1003.91
2018-10-01T04:08:49.109Z,1003.91
2018-10-01T04:09:49.123Z,1003.87
2018-10-01T04:10:49.476Z,1003.89
2018-10-01T04:11:49.047Z,1003.86
2018-10-01T04:12:49.086Z,1003.88
2018-10-01T04:13:49.167Z,1003.88
2018-10-01T04:14:49.192Z,1003.86
2018-10-01T04:15:48.977Z,1003.89
2018-10-01T04:16:49.083Z,1003.90
2018-10-01T04:17:48.762Z,1003.86
2018-10-01T04:18:48.744Z,1003.91
2018-10-01T04:19:48.775Z,1003.86
2018-10-01T04:20:48.716Z,1003.90
2018-10-01T04:21:48.796Z,1003.89
2018-10-01T04:22:49.979Z,1003.89
2018-10-01T04:23:48.998Z,1003.87
2018-10-01T04:24:48.649Z,1003.87
2018-10-01T04:25:49.255Z,1003.86
2018-10-01T04:26:49.144Z,1003.87
2018-10-01T04:27:48.884Z,1003.87
2018-10-01T04:28:48.551Z,1003.89
2018-10-01T04:30:48.818Z,1003.89
2018-10-01T04:31:48.496Z,1003.87
2018-10-01T04:32:48.475Z,1003.88
2018-10-01T04:33:48.518Z,1003.83
2018-10-01T04:34:48.444Z,1003.85
2018-10-01T04:35:48.429Z,1003.85
2018-10-01T04:37:48.909Z,1003.82
2018-10-01T04:38:48.368Z,1003.82
2018-10-01T04:39:48.341Z,1003.83
2018-10-01T04:41:48.384Z,1003.86
2018-10-01T04:42:48.281Z,1003.87
2018-10-01T04:43:48.316Z,1003.92
2018-10-01T04:45:48.231Z,1003.90
2018-10-01T04:46:48.229Z,1003.91
2018-10-01T04:47:48.234Z,1003.93
2018-10-01T04:48:48.168Z,1003.94
2018-10-01T04:49:49.354Z,1003.94
2018-10-01T04:50:48.125Z,1003.94
2018-10-01T04:51:48.412Z,1003.93
2018-10-01T04:52:48.295Z,1003.92
2018-10-01T04:53:48.129Z,1003.90
2018-10-01T04:54:48.302Z,1003.91
2018-10-01T04:56:48.104Z,1003.91
2018-10-01T04:57:48.001Z,1003.88
2018-10-01T04:58:48.667Z,1003.93
2018-10-01T05:00:48.044Z,1003.92
2018-10-01T05:01:47.925Z,1003.89
2018-10-01T05:02:47.964Z,1003.93
2018-10-01T05:03:47.893Z,1004.00
2018-10-01T05:04:48.217Z,1004.04
2018-10-01T05:05:47.843Z,1004.03
2018-10-01T05:06:47.876Z,1004.09
2018-10-01T05:10:49.295Z,1004.18
2018-10-01T05:11:47.795Z,1004.15
2018-10-01T05:12:47.709Z,1004.18
2018-10-01T05:13:47.687Z,1004.21
2018-10-01T05:14:47.716Z,1004.16
2018-10-01T05:15:47.649Z,1004.23
2018-10-01T05:16:48.091Z,1004.21
2018-10-01T05:18:47.669Z,1004.24
2018-10-01T05:19:47.576Z,1004.22
2018-10-01T05:20:47.720Z,1004.22
2018-10-01T05:21:47.629Z,1004.25
2018-10-01T05:22:47.921Z,1004.20
2018-10-01T05:23:48.203Z,1004.23
2018-10-01T05:24:47.482Z,1004.24
2018-10-01T05:25:47.474Z,1004.27
2018-10-01T05:27:48.681Z,1004.29
2018-10-01T05:28:47.410Z,1004.31
2018-10-01T05:29:47.927Z,1004.29
2018-10-01T05:30:47.366Z,1004.23
2018-10-01T05:31:47.454Z,1004.22
2018-10-01T05:32:47.493Z,1004.20
2018-10-01T05:33:47.305Z,1004.25
2018-10-01T05:34:47.332Z,1004.24
2018-10-01T05:36:47.624Z,1004.23
2018-10-01T05:38:47.225Z,1004.27
2018-10-01T05:39:47.190Z,1004.29
2018-10-01T05:40:47.190Z,1004.29
2018-10-01T05:41:47.160Z,1004.33
2018-10-01T05:42:47.544Z,1004.36
2018-10-01T05:44:47.102Z,1004.40
2018-10-01T05:45:47.143Z,1004.42
2018-10-01T05:46:47.112Z,1004.42
2018-10-01T05:47:47.042Z,1004.47
2018-10-01T05:48:47.055Z,1004.51
2018-10-01T05:51:47.315Z,1004.50
2018-10-01T05:52:46.953Z,1004.46
2018-10-01T05:53:46.979Z,1004.47
2018-10-01T05:54:46.965Z,1004.47
2018-10-01T05:55:46.893Z,1004.50
2018-10-01T05:56:47.021Z,1004.51
2018-10-01T05:57:46.903Z,1004.53
2018-10-01T05:58:48.400Z,1004.52
2018-10-01T06:00:46.980Z,1004.54
2018-10-01T06:01:46.941Z,1004.55
2018-10-01T06:02:47.935Z,1004.58
2018-10-01T06:03:48.514Z,1004.55
2018-10-01T06:04:47.997Z,1004.58
2018-10-01T06:05:48.718Z,1004.57
2018-10-01T06:06:46.692Z,1004.62
2018-10-01T06:07:46.755Z,1004.61
2018-10-01T06:08:46.743Z,1004.69
2018-10-01T06:09:46.635Z,1004.67
2018-10-01T06:10:46.651Z,1004.70
2018-10-01T06:11:46.596Z,1004.75
2018-10-01T06:12:46.996Z,1004.76
2018-10-01T06:13:46.597Z,1004.80
2018-10-01T06:14:46.583Z,1004.82
2018-10-01T06:15:46.639Z,1004.87
2018-10-01T06:16:46.805Z,1004.89
2018-10-01T06:17:46.493Z,1004.90
2018-10-01T06:18:46.455Z,1004.94
2018-10-01T06:19:46.734Z,1004.90
2018-10-01T06:20:46.419Z,1004.90
2018-10-01T06:21:46.451Z,1004.89
2018-10-01T06:22:46.443Z,1004.91
2018-10-01T06:23:46.370Z,1004.92
2018-10-01T06:24:46.353Z,1004.92
2018-10-01T06:25:46.331Z,1004.95
2018-10-01T06:26:46.607Z,1005.00
2018-10-01T06:27:46.588Z,1004.98
2018-10-01T06:28:46.340Z,1004.96
2018-10-01T06:29:46.251Z,1004.97
2018-10-01T06:30:46.248Z,1004.93
2018-10-01T06:31:46.213Z,1004.95
2018-10-01T06:32:46.498Z,1004.98
2018-10-01T06:33:46.234Z,1004.96
2018-10-01T06:34:46.178Z,1004.99
2018-10-01T06:35:46.141Z,1005.02
2018-10-01T06:36:46.147Z,1005.03
2018-10-01T06:37:46.181Z,1005.03
2018-10-01T06:38:46.407Z,1005.01
2018-10-01T06:39:46.312Z,1005.06
2018-10-01T06:40:46.255Z,1005.03
2018-10-01T06:41:46.083Z,1005.03
2018-10-01T06:42:46.008Z,1005.10
2018-10-01T06:43:45.991Z,1005.07
2018-10-01T06:44:46.370Z,1005.11
2018-10-01T06:45:46.335Z,1005.11
2018-10-01T06:46:45.960Z,1005.13
2018-10-01T06:47:45.969Z,1005.15
2018-10-01T06:48:46.228Z,1005.12
2018-10-01T06:49:45.880Z,1005.19
2018-10-01T06:51:46.142Z,1005.15
2018-10-01T06:52:45.874Z,1005.15
2018-10-01T06:53:45.806Z,1005.19
2018-10-01T06:54:45.837Z,1005.18
2018-10-01T06:55:45.957Z,1005.23
2018-10-01T06:56:45.801Z,1005.22
2018-10-01T06:57:46.032Z,1005.21
2018-10-01T06:58:45.734Z,1005.16
2018-10-01T06:59:45.698Z,1005.24
2018-10-01T07:00:45.732Z,1005.21
2018-10-01T07:01:45.737Z,1005.21
2018-10-01T07:02:45.697Z,1005.23
2018-10-01T07:03:45.926Z,1005.24
2018-10-01T07:04:45.647Z,1005.23
2018-10-01T07:06:45.643Z,1005.24
2018-10-01T07:07:45.657Z,1005.27
2018-10-01T07:08:45.538Z,1005.30
2018-10-01T07:09:45.827Z,1005.33
2018-10-01T07:10:45.562Z,1005.31
2018-10-01T07:11:46.135Z,1005.33
2018-10-01T07:12:45.677Z,1005.35
2018-10-01T07:13:45.514Z,1005.33
2018-10-01T07:14:46.831Z,1005.37
2018-10-01T07:15:45.702Z,1005.38
2018-10-01T07:16:46.028Z,1005.44
2018-10-01T07:17:45.536Z,1005.42
2018-10-01T07:18:45.472Z,1005.42
2018-10-01T07:19:45.633Z,1005.41
2018-10-01T07:21:45.476Z,1005.42
2018-10-01T07:22:45.435Z,1005.37
2018-10-01T07:23:45.574Z,1005.42
2018-10-01T07:24:45.279Z,1005.40
2018-10-01T07:25:45.278Z,1005.42
2018-10-01T07:26:45.216Z,1005.39
2018-10-01T07:27:45.205Z,1005.42
2018-10-01T07:29:45.964Z,1005.46
2018-10-01T07:30:45.490Z,1005.45
2018-10-01T07:31:45.120Z,1005.47
2018-10-01T07:32:45.119Z,1005.46
2018-10-01T07:33:45.091Z,1005.49
2018-10-01T07:34:45.330Z,1005.48
2018-10-01T07:35:45.044Z,1005.55
2018-10-01T07:36:45.414Z,1005.55
2018-10-01T07:37:45.012Z,1005.55
2018-10-01T07:38:45.297Z,1005.52
2018-10-01T07:39:45.381Z,1005.55
2018-10-01T07:40:45.093Z,1005.57
2018-10-01T07:41:44.943Z,1005.54
2018-10-01T07:42:44.925Z,1005.56
2018-10-01T07:43:45.270Z,1005.57
2018-10-01T07:45:44.931Z,1005.59
2018-10-01T07:46:44.969Z,1005.53
2018-10-01T07:47:44.891Z,1005.55
2018-10-01T07:48:44.826Z,1005.60
2018-10-01T07:50:45.212Z,1005.60
2018-10-01T07:51:44.855Z,1005.58
2018-10-01T07:52:44.829Z,1005.62
2018-10-01T07:53:44.849Z,1005.60
2018-10-01T07:55:44.716Z,1005.56
2018-10-01T07:56:44.738Z,1005.57
2018-10-01T07:57:45.084Z,1005.55
2018-10-01T07:58:44.706Z,1005.62
2018-10-01T07:59:44.766Z,1005.67
2018-10-01T08:01:44.995Z,1005.64
2018-10-01T08:02:45.096Z,1005.64
2018-10-01T08:03:45.059Z,1005.65
2018-10-01T08:04:44.640Z,1005.65
2018-10-01T08:05:44.595Z,1005.66
2018-10-01T08:06:45.801Z,1005.66
2018-10-01T08:07:44.628Z,1005.68
2018-10-01T08:08:44.573Z,1005.76
2018-10-01T08:09:44.864Z,1005.77
2018-10-01T08:10:44.501Z,1005.73
2018-10-01T08:11:44.538Z,1005.73
2018-10-01T08:12:44.504Z,1005.75
2018-10-01T08:13:44.489Z,1005.73
2018-10-01T08:14:44.369Z,1005.74
2018-10-01T08:15:44.730Z,1005.76
2018-10-01T08:18:44.996Z,1005.85
2018-10-01T08:19:44.274Z,1005.80
2018-10-01T08:20:44.263Z,1005.82
2018-10-01T08:21:44.845Z,1005.80
2018-10-01T08:22:44.274Z,1005.86
2018-10-01T08:24:44.230Z,1005.86
2018-10-01T08:25:44.170Z,1005.87
2018-10-01T08:26:44.206Z,1005.84
2018-10-01T08:27:44.493Z,1005.90
2018-10-01T08:28:44.220Z,1005.93
2018-10-01T08:29:44.210Z,1005.99
2018-10-01T08:30:44.090Z,1006.03
2018-10-01T08:31:44.139Z,1006.03
2018-10-01T08:32:44.061Z,1005.99
2018-10-01T08:34:44.629Z,1006.08
2018-10-01T08:37:44.643Z,1006.03
2018-10-01T08:38:44.027Z,1006.08
2018-10-01T08:39:43.934Z,1006.11
2018-10-01T08:40:43.918Z,1006.08
2018-10-01T08:41:44.199Z,1006.09
2018-10-01T08:42:43.900Z,1006.15
2018-10-01T08:43:43.893Z,1006.18
2018-10-01T08:44:43.898Z,1006.21
2018-10-01T08:45:43.834Z,1006.13
2018-10-01T08:46:43.815Z,1006.16
2018-10-01T08:47:43.889Z,1006.18
2018-10-01T08:48:44.090Z,1006.18
2018-10-01T08:49:44.548Z,1006.20
2018-10-01T08:50:43.859Z,1006.27
2018-10-01T08:51:43.756Z,1006.15
2018-10-01T08:52:43.719Z,1006.14
2018-10-01T08:53:43.691Z,1006.15
2018-10-01T08:54:43.677Z,1006.15
2018-10-01T08:55:43.961Z,1006.13
2018-10-01T08:56:43.648Z,1006.12
2018-10-01T08:57:43.625Z,1006.18
2018-10-01T08:59:43.605Z,1006.17
2018-10-01T09:00:43.629Z,1006.16
2018-10-01T09:01:43.565Z,1006.21
2018-10-01T09:02:43.634Z,1006.22
2018-10-01T09:03:43.531Z,1006.17
2018-10-01T09:04:43.522Z,1006.24
2018-10-01T09:05:43.524Z,1006.25
2018-10-01T09:06:43.570Z,1006.22
2018-10-01T09:07:43.472Z,1006.25
2018-10-01T09:08:43.751Z,1006.25
2018-10-01T09:10:43.499Z,1006.24
2018-10-01T09:12:43.447Z,1006.28
2018-10-01T09:13:43.375Z,1006.31
2018-10-01T09:14:43.484Z,1006.32
2018-10-01T09:15:43.693Z,1006.35
2018-10-01T09:16:43.623Z,1006.30
2018-10-01T09:17:43.305Z,1006.34
2018-10-01T09:18:43.413Z,1006.45
2018-10-01T09:19:43.385Z,1006.36
2018-10-01T09:20:43.313Z,1006.33
2018-10-01T09:21:43.538Z,1006.34
2018-10-01T09:22:44.775Z,1006.31
2018-10-01T09:24:43.244Z,1006.33
2018-10-01T09:25:43.175Z,1006.30
2018-10-01T09:26:43.166Z,1006.34
2018-10-01T09:27:43.142Z,1006.33
2018-10-01T09:28:43.126Z,1006.43
2018-10-01T09:29:43.757Z,1006.37
2018-10-01T09:31:43.247Z,1006.34
2018-10-01T09:32:43.074Z,1006.33
2018-10-01T09:33:43.470Z,1006.33
2018-10-01T09:34:43.052Z,1006.37
2018-10-01T09:35:43.476Z,1006.25
2018-10-01T09:36:43.009Z,1006.31
2018-10-01T09:37:43.012Z,1006.27
2018-10-01T09:39:43.009Z,1006.38
2018-10-01T09:40:42.946Z,1006.34
2018-10-01T09:41:43.285Z,1006.36
2018-10-01T09:42:42.914Z,1006.33
2018-10-01T09:43:42.899Z,1006.32
2018-10-01T09:44:42.886Z,1006.31
2018-10-01T09:45:42.919Z,1006.34
2018-10-01T09:46:42.862Z,1006.30
2018-10-01T09:49:43.116Z,1006.34
2018-10-01T09:50:42.797Z,1006.37
2018-10-01T09:51:42.819Z,1006.30
2018-10-01T09:52:42.762Z,1006.39
2018-10-01T09:53:42.881Z,1006.34
2018-10-01T09:54:43.037Z,1006.34
2018-10-01T09:55:42.762Z,1006.35
2018-10-01T09:56:42.808Z,1006.38
2018-10-01T09:57:42.788Z,1006.41
2018-10-01T09:58:42.763Z,1006.45
2018-10-01T09:59:42.719Z,1006.39
2018-10-01T10:00:42.688Z,1006.37
2018-10-01T10:01:43.026Z,1006.35
2018-10-01T10:02:42.809Z,1006.38
2018-10-01T10:03:42.605Z,1006.41
2018-10-01T10:04:42.647Z,1006.50
2018-10-01T10:06:42.621Z,1006.52
2018-10-01T10:07:42.887Z,1006.47
2018-10-01T10:08:42.639Z,1006.56
2018-10-01T10:10:42.547Z,1006.52
2018-10-01T10:12:42.534Z,1006.65
2018-10-01T10:13:42.456Z,1006.88
2018-10-01T10:14:42.797Z,1007.20
2018-10-01T10:15:42.465Z,1006.72
2018-10-01T10:16:42.609Z,1007.23
2018-10-01T10:17:42.455Z,1006.61
2018-10-01T10:18:42.451Z,1007.29
2018-10-01T10:19:42.765Z,1006.28
2018-10-01T10:21:42.666Z,1006.59
2018-10-01T10:22:42.353Z,1007.15
2018-10-01T10:23:42.390Z,1006.62
2018-10-01T10:24:42.379Z,1007.19
2018-10-01T10:26:42.317Z,1006.88
2018-10-01T10:27:42.333Z,1006.89
2018-10-01T10:28:42.583Z,1006.78
2018-10-01T10:29:42.269Z,1006.56
2018-10-01T10:30:42.317Z,1006.35
2018-10-01T10:31:42.354Z,1006.32
2018-10-01T10:32:42.261Z,1006.24
2018-10-01T10:33:42.286Z,1006.29
2018-10-01T10:34:42.209Z,1006.28
2018-10-01T10:35:43.536Z,1006.25
2018-10-01T10:36:42.197Z,1006.25
2018-10-01T10:37:42.182Z,1006.33
2018-10-01T10:38:42.177Z,1006.30
2018-10-01T10:39:42.307Z,1006.36
2018-10-01T10:40:42.685Z,1006.30
2018-10-01T10:41:42.226Z,1006.34
2018-10-01T10:42:42.425Z,1006.32
2018-10-01T10:43:42.107Z,1006.32
2018-10-01T10:44:42.162Z,1006.26
2018-10-01T10:45:42.382Z,1006.26
2018-10-01T10:46:42.070Z,1006.27
2018-10-01T10:47:42.440Z,1006.30
2018-10-01T10:48:42.048Z,1006.33
2018-10-01T10:49:42.795Z,1006.35
2018-10-01T10:50:42.160Z,1006.34
2018-10-01T10:51:42.006Z,1006.35
2018-10-01T10:52:41.998Z,1006.43
2018-10-01T10:53:42.466Z,1006.39
2018-10-01T10:54:41.964Z,1006.34
2018-10-01T10:55:42.387Z,1006.40
2018-10-01T10:56:42.235Z,1006.40
2018-10-01T10:57:41.948Z,1006.91
2018-10-01T10:58:41.909Z,1006.57
2018-10-01T10:59:42.284Z,1006.41
2018-10-01T11:00:41.928Z,1006.35
2018-10-01T11:01:41.906Z,1006.32
2018-10-01T11:02:42.205Z,1006.29
2018-10-01T11:03:41.848Z,1006.24
2018-10-01T11:04:41.901Z,1006.23
2018-10-01T11:05:43.921Z,1006.23
2018-10-01T11:06:43.106Z,1006.22
2018-10-01T11:07:41.936Z,1006.22
2018-10-01T11:08:42.308Z,1006.27
2018-10-01T11:09:41.778Z,1007.06
2018-10-01T11:11:42.116Z,1007.22
2018-10-01T11:12:41.762Z,1007.22
2018-10-01T11:13:42.013Z,1007.25
2018-10-01T11:14:41.855Z,1007.23
2018-10-01T11:15:41.949Z,1007.18
2018-10-01T11:16:41.805Z,1007.17
2018-10-01T11:17:41.769Z,1007.11
2018-10-01T11:18:41.888Z,1006.87
2018-10-01T11:19:41.750Z,1006.27
2018-10-01T11:20:42.055Z,1007.14
2018-10-01T11:21:42.003Z,1007.01
2018-10-01T11:22:41.692Z,1007.23
2018-10-01T11:23:41.620Z,1006.43
2018-10-01T11:24:41.620Z,1006.34
2018-10-01T11:25:41.547Z,1006.31
2018-10-01T11:26:41.888Z,1006.29
2018-10-01T11:27:41.949Z,1006.22
2018-10-01T11:28:42.199Z,1006.19
2018-10-01T11:29:41.493Z,1006.24
2018-10-01T11:30:41.508Z,1006.26
2018-10-01T11:31:41.769Z,1006.25
2018-10-01T11:32:41.814Z,1006.24
2018-10-01T11:33:41.579Z,1006.21
2018-10-01T11:34:41.564Z,1006.27
2018-10-01T11:35:41.453Z,1006.25
2018-10-01T11:36:41.412Z,1006.27
2018-10-01T11:37:41.451Z,1006.24
2018-10-01T11:38:41.696Z,1006.24
2018-10-01T11:39:41.479Z,1007.11
2018-10-01T11:40:41.371Z,1006.29
2018-10-01T11:41:41.914Z,1007.41
2018-10-01T11:43:41.319Z,1007.41
2018-10-01T11:44:41.297Z,1007.43
2018-10-01T11:45:41.593Z,1007.40
2018-10-01T11:47:41.277Z,1007.47
2018-10-01T11:48:41.248Z,1007.49
2018-10-01T11:49:41.287Z,1007.52
2018-10-01T11:50:41.382Z,1007.65
2018-10-01T11:51:41.368Z,1006.47
2018-10-01T11:52:41.550Z,1006.36
2018-10-01T11:53:41.192Z,1006.26
2018-10-01T11:54:41.179Z,1006.26
2018-10-01T11:55:41.302Z,1006.25
2018-10-01T11:56:41.206Z,1006.16
2018-10-01T11:57:41.446Z,1006.25
2018-10-01T11:58:41.131Z,1006.32
2018-10-01T11:59:41.424Z,1006.15
2018-10-01T12:00:41.618Z,1006.15
2018-10-01T12:01:41.148Z,1006.23
2018-10-01T12:02:41.090Z,1006.16
2018-10-01T12:03:41.289Z,1006.19
2018-10-01T12:04:41.098Z,1006.22
2018-10-01T12:05:41.087Z,1006.15
2018-10-01T12:06:41.985Z,1006.29
2018-10-01T12:07:41.281Z,1006.42
2018-10-01T12:08:41.312Z,1006.39
2018-10-01T12:09:41.106Z,1006.42
2018-10-01T12:10:40.984Z,1006.43
2018-10-01T12:11:40.978Z,1006.45
2018-10-01T12:12:41.305Z,1006.52
2018-10-01T12:13:40.943Z,1006.48
2018-10-01T12:14:40.928Z,1006.61
2018-10-01T12:15:41.071Z,1006.65
2018-10-01T12:16:40.953Z,1006.66
2018-10-01T12:17:40.940Z,1006.65
2018-10-01T12:18:40.988Z,1006.66
2018-10-01T12:19:41.207Z,1006.63
2018-10-01T12:22:40.812Z,1006.68
2018-10-01T12:23:40.808Z,1006.70
2018-10-01T12:27:41.488Z,1006.76
2018-10-01T12:28:40.708Z,1006.81
2018-10-01T12:29:40.927Z,1006.83
2018-10-01T12:32:41.843Z,1006.78
2018-10-01T12:33:41.210Z,1006.76
2018-10-01T12:34:40.632Z,1006.76
2018-10-01T12:35:40.670Z,1006.76
2018-10-01T12:36:40.573Z,1006.72
2018-10-01T12:37:40.606Z,1006.74
2018-10-01T12:39:41.522Z,1006.73
2018-10-01T12:40:40.505Z,1006.74
2018-10-01T12:41:40.663Z,1006.76
2018-10-01T12:42:40.530Z,1006.82
2018-10-01T12:43:40.468Z,1006.82
2018-10-01T12:44:40.902Z,1006.80
2018-10-01T12:46:40.446Z,1006.79
2018-10-01T12:47:40.391Z,1006.83
2018-10-01T12:48:40.970Z,1006.84
2018-10-01T12:50:40.326Z,1006.96
2018-10-01T12:52:41.878Z,1006.99
2018-10-01T12:53:40.974Z,1006.93
2018-10-01T12:54:40.486Z,1006.93
2018-10-01T12:56:40.228Z,1006.86
2018-10-01T12:57:41.272Z,1006.88
2018-10-01T12:58:40.492Z,1006.89
2018-10-01T13:00:40.346Z,1006.88
2018-10-01T13:01:41.006Z,1006.93
2018-10-01T13:02:40.119Z,1006.83
2018-10-01T13:03:40.108Z,1006.86
2018-10-01T13:04:40.489Z,1006.89
2018-10-01T13:05:40.230Z,1006.87
2018-10-01T13:07:40.089Z,1006.89
2018-10-01T13:08:40.080Z,1006.85
2018-10-01T13:09:40.246Z,1006.83
2018-10-01T13:11:40.499Z,1006.87
2018-10-01T13:12:40.411Z,1006.86
2018-10-01T13:13:40.339Z,1006.88
2018-10-01T13:14:39.915Z,1006.87
2018-10-01T13:15:39.938Z,1006.90
2018-10-01T13:16:39.873Z,1006.93
2018-10-01T13:17:40.114Z,1006.90
2018-10-01T13:18:40.338Z,1006.96
2018-10-01T13:19:39.879Z,1006.95
2018-10-01T13:20:39.797Z,1006.98
2018-10-01T13:21:39.789Z,1006.98
2018-10-01T13:22:39.802Z,1007.04
2018-10-01T13:23:39.848Z,1007.03
2018-10-01T13:24:41.526Z,1007.09
2018-10-01T13:25:40.076Z,1007.09